createdAt,value
2023-02-14T00:00:53.058Z,7.50
2023-02-14T00:03:21.197Z,7.70
2023-02-14T00:05:48.317Z,7.82
2023-02-14T00:08:16.880Z,7.75
2023-02-14T00:10:44.107Z,7.97
2023-02-14T00:13:11.669Z,7.63
2023-02-14T00:15:39.076Z,7.95
2023-02-14T00:18:06.589Z,8.02
2023-02-14T00:20:33.776Z,7.82
2023-02-14T00:23:01.202Z,7.72
2023-02-14T00:25:28.656Z,7.53
2023-02-14T00:27:55.924Z,7.60
2023-02-14T00:30:23.210Z,7.90
2023-02-14T00:32:50.340Z,6.53
2023-02-14T00:35:17.511Z,7.18
2023-02-14T00:37:46.308Z,7.53
2023-02-14T00:40:14.465Z,7.13
2023-02-14T00:42:41.730Z,7.25
2023-02-14T00:45:10.075Z,7.30
2023-02-14T00:47:37.274Z,7.60
2023-02-14T00:50:05.259Z,7.05
2023-02-14T00:52:32.664Z,7.57
2023-02-14T00:54:59.914Z,7.50
2023-02-14T00:57:27.253Z,7.57
2023-02-14T00:59:54.472Z,7.18
2023-02-14T01:02:21.789Z,8.13
2023-02-14T01:04:48.939Z,7.72
2023-02-14T01:07:16.185Z,7.90
2023-02-14T01:09:43.371Z,7.47
2023-02-14T01:12:10.548Z,8.25
2023-02-14T01:14:38.415Z,7.95
2023-02-14T01:17:05.492Z,7.78
2023-02-14T01:19:32.866Z,7.60
2023-02-14T01:22:00.197Z,7.90
2023-02-14T01:24:27.617Z,7.93
2023-02-14T01:26:54.806Z,8.45
2023-02-14T01:29:21.909Z,8.27
2023-02-14T01:31:49.528Z,7.70
2023-02-14T01:34:16.741Z,7.72
2023-02-14T01:36:44.023Z,7.78
2023-02-14T01:39:14.202Z,8.65
2023-02-14T01:41:43.451Z,7.82
2023-02-14T01:44:17.682Z,7.90
2023-02-14T01:49:18.661Z,7.97
2023-02-14T01:51:52.963Z,7.88
2023-02-14T01:54:22.612Z,8.32
2023-02-14T01:56:53.746Z,8.40
2023-02-14T01:59:26.916Z,8.10
2023-02-14T02:01:55.525Z,7.40
2023-02-14T02:04:29.550Z,8.60
2023-02-14T02:07:05.404Z,8.65
2023-02-14T02:09:50.838Z,8.25
2023-02-14T02:12:18.170Z,8.15
2023-02-14T02:14:46.604Z,8.93
2023-02-14T02:17:33.031Z,8.07
2023-02-14T02:20:24.861Z,8.40
2023-02-14T02:23:12.717Z,8.63
2023-02-14T02:26:07.578Z,8.88
2023-02-14T02:31:38.641Z,8.60
2023-02-14T02:34:41.826Z,8.20
2023-02-14T02:37:08.912Z,8.60
2023-02-14T02:39:49.581Z,9.68
2023-02-14T02:42:26.038Z,8.38
2023-02-14T02:45:00.864Z,10.07
2023-02-14T02:47:44.722Z,8.60
2023-02-14T02:50:58.366Z,9.43
2023-02-14T02:53:41.271Z,9.18
2023-02-14T02:56:39.170Z,9.07
2023-02-14T02:59:23.499Z,9.73
2023-02-14T03:02:15.644Z,8.63
2023-02-14T03:04:53.671Z,8.77
2023-02-14T03:07:36.535Z,8.70
2023-02-14T03:10:20.061Z,8.75
2023-02-14T03:13:22.009Z,9.50
2023-02-14T03:15:54.899Z,9.00
2023-02-14T03:19:30.600Z,10.43
2023-02-14T03:22:26.399Z,9.40
2023-02-14T03:25:28.476Z,9.65
2023-02-14T03:28:05.062Z,8.98
2023-02-14T03:30:59.814Z,9.90
2023-02-14T03:33:46.187Z,9.85
2023-02-14T03:36:25.735Z,9.98
2023-02-14T03:39:06.376Z,9.70
2023-02-14T03:42:12.240Z,8.82
2023-02-14T03:44:42.278Z,10.27
2023-02-14T03:47:17.007Z,9.95
2023-02-14T03:49:49.297Z,10.02
2023-02-14T03:52:18.341Z,10.50
2023-02-14T03:54:49.214Z,10.63
2023-02-14T03:57:20.611Z,11.10
2023-02-14T03:59:49.047Z,9.77
2023-02-14T04:02:26.980Z,9.35
2023-02-14T04:04:56.106Z,10.10
2023-02-14T04:07:24.338Z,10.60
2023-02-14T04:09:52.019Z,11.27
2023-02-14T04:12:32.376Z,10.90
2023-02-14T04:15:04.913Z,10.68
2023-02-14T04:17:50.652Z,11.82
2023-02-14T04:20:17.894Z,10.43
2023-02-14T04:22:46.578Z,11.65
2023-02-14T04:25:14.898Z,11.13
2023-02-14T04:27:42.225Z,11.27
2023-02-14T04:30:10.200Z,11.40
2023-02-14T04:32:37.530Z,11.23
2023-02-14T04:35:05.079Z,11.93
2023-02-14T04:37:32.281Z,11.20
2023-02-14T04:39:59.479Z,12.00
2023-02-14T04:42:26.679Z,11.77
2023-02-14T04:44:53.731Z,11.77
2023-02-14T04:47:20.854Z,12.15
2023-02-14T04:49:47.992Z,12.30
2023-02-14T04:52:15.853Z,13.10
2023-02-14T04:54:43.174Z,12.77
2023-02-14T04:57:10.318Z,13.02
2023-02-14T04:59:38.483Z,12.23
2023-02-14T05:02:05.605Z,12.82
2023-02-14T05:04:32.912Z,13.45
2023-02-14T05:07:00.224Z,12.50
2023-02-14T05:09:27.439Z,11.80
2023-02-14T05:11:54.681Z,13.18
2023-02-14T05:14:21.903Z,11.95
2023-02-14T05:16:49.161Z,12.07
2023-02-14T05:19:16.368Z,13.60
2023-02-14T05:21:43.370Z,12.38
2023-02-14T05:24:10.530Z,13.60
2023-02-14T05:26:37.721Z,12.30
2023-02-14T05:29:05.123Z,13.00
2023-02-14T05:31:32.510Z,13.65
2023-02-14T05:34:00.022Z,13.32
2023-02-14T05:36:27.312Z,13.48
2023-02-14T05:38:54.733Z,14.50
2023-02-14T05:41:22.137Z,13.20
2023-02-14T05:43:49.399Z,13.40
2023-02-14T05:46:16.769Z,13.65
2023-02-14T05:48:44.766Z,12.70
2023-02-14T05:51:12.596Z,12.93
2023-02-14T05:53:40.270Z,13.20
2023-02-14T05:56:07.379Z,13.45
2023-02-14T05:58:34.644Z,12.73
2023-02-14T06:01:02.335Z,13.52
2023-02-14T06:03:29.504Z,12.70
2023-02-14T06:05:56.623Z,12.43
2023-02-14T06:08:23.946Z,12.23
2023-02-14T06:10:51.171Z,12.38
2023-02-14T06:13:19.700Z,12.93
2023-02-14T06:15:46.770Z,13.20
2023-02-14T06:18:13.967Z,12.98
2023-02-14T06:20:41.040Z,12.95
2023-02-14T06:23:08.107Z,12.90
2023-02-14T06:25:35.423Z,12.70
2023-02-14T06:28:02.661Z,13.00
2023-02-14T06:30:29.832Z,12.57
2023-02-14T06:32:56.993Z,12.98
2023-02-14T06:35:24.143Z,13.57
2023-02-14T06:37:51.184Z,12.45
2023-02-14T06:40:19.820Z,13.27
2023-02-14T06:42:46.962Z,13.40
2023-02-14T06:45:14.006Z,12.98
2023-02-14T06:47:41.198Z,12.48
2023-02-14T06:50:11.639Z,12.60
2023-02-14T06:52:39.235Z,12.60
2023-02-14T06:55:06.643Z,12.48
2023-02-14T06:57:33.694Z,13.63
2023-02-14T07:00:00.807Z,12.18
2023-02-14T07:02:28.023Z,12.95
2023-02-14T07:04:55.058Z,12.52
2023-02-14T07:07:22.171Z,13.57
2023-02-14T07:09:49.225Z,12.52
2023-02-14T07:12:16.265Z,12.90
2023-02-14T07:14:43.299Z,12.35
2023-02-14T07:17:10.487Z,13.25
2023-02-14T07:19:37.456Z,13.77
2023-02-14T07:22:04.593Z,14.13
2023-02-14T07:24:31.637Z,12.20
2023-02-14T07:26:58.655Z,12.90
2023-02-14T07:29:25.789Z,13.60
2023-02-14T07:31:52.998Z,14.10
2023-02-14T07:34:20.064Z,14.00
2023-02-14T07:36:47.113Z,13.85
2023-02-14T07:39:14.134Z,14.30
2023-02-14T07:41:41.230Z,13.57
2023-02-14T07:44:08.491Z,12.70
2023-02-14T07:46:35.629Z,13.95
2023-02-14T07:49:02.742Z,14.25
2023-02-14T07:51:29.733Z,13.65
2023-02-14T07:53:56.826Z,14.65
2023-02-14T07:56:24.149Z,14.32
2023-02-14T07:58:51.298Z,13.90
2023-02-14T08:01:18.674Z,14.65
2023-02-14T08:03:49.572Z,13.48
2023-02-14T08:06:18.036Z,13.95
2023-02-14T08:08:45.959Z,14.10
2023-02-14T08:11:33.589Z,14.95
2023-02-14T08:14:01.251Z,14.68
2023-02-14T08:16:28.459Z,14.30
2023-02-14T08:18:55.608Z,13.95
2023-02-14T08:21:22.740Z,14.15
2023-02-14T08:23:49.780Z,14.75
2023-02-14T08:26:17.389Z,14.05
2023-02-14T08:28:44.581Z,14.10
2023-02-14T08:31:11.863Z,14.95
2023-02-14T08:33:39.080Z,14.18
2023-02-14T08:36:06.303Z,14.57
2023-02-14T08:38:33.370Z,14.07
2023-02-14T08:41:05.034Z,12.98
2023-02-14T08:43:34.463Z,13.95
2023-02-14T08:46:02.210Z,13.35
2023-02-14T08:48:29.517Z,12.95
2023-02-14T08:50:56.704Z,13.30
2023-02-14T08:53:23.877Z,13.25
2023-02-14T08:55:50.942Z,13.85
2023-02-14T08:58:18.619Z,13.18
2023-02-14T09:00:45.697Z,12.45
2023-02-14T09:03:12.807Z,12.68
2023-02-14T09:05:39.939Z,13.25
2023-02-14T09:08:07.896Z,13.82
2023-02-14T09:10:35.132Z,14.02
2023-02-14T09:13:02.281Z,13.13
2023-02-14T09:15:29.461Z,12.77
2023-02-14T09:17:56.582Z,13.30
2023-02-14T09:20:23.813Z,12.95
2023-02-14T09:22:51.074Z,13.70
2023-02-14T09:25:18.252Z,13.52
2023-02-14T09:27:45.328Z,13.43
2023-02-14T09:30:13.170Z,13.18
2023-02-14T09:32:40.220Z,14.05
2023-02-14T09:35:07.590Z,12.90
2023-02-14T09:37:53.238Z,13.55
2023-02-14T09:40:21.043Z,13.25
2023-02-14T09:42:51.712Z,12.70
2023-02-14T09:45:30.873Z,12.32
2023-02-14T09:48:06.678Z,13.25
2023-02-14T09:50:46.049Z,12.77
2023-02-14T09:53:22.870Z,12.70
2023-02-14T09:56:05.634Z,13.38
2023-02-14T09:58:51.530Z,12.70
2023-02-14T10:01:22.333Z,12.90
2023-02-14T10:04:16.490Z,13.32
2023-02-14T10:06:46.943Z,13.52
2023-02-14T10:09:23.123Z,12.85
2023-02-14T10:11:51.338Z,12.30
2023-02-14T10:14:21.709Z,13.05
2023-02-14T10:16:51.770Z,12.60
2023-02-14T10:19:48.475Z,12.63
2023-02-14T10:22:19.392Z,11.40
2023-02-14T10:25:02.334Z,13.32
2023-02-14T10:27:31.090Z,12.70
2023-02-14T10:29:58.650Z,12.30
2023-02-14T10:32:38.000Z,11.73
2023-02-14T10:35:22.559Z,12.75
2023-02-14T10:40:41.761Z,11.77
2023-02-14T10:43:28.452Z,11.73
2023-02-14T10:46:27.760Z,11.15
2023-02-14T10:49:21.115Z,12.27
2023-02-14T10:51:57.137Z,12.05
2023-02-14T10:54:32.656Z,11.68
2023-02-14T10:57:04.564Z,11.80
2023-02-14T10:59:39.556Z,11.63
2023-02-14T11:02:12.351Z,10.68
2023-02-14T11:04:39.629Z,11.32
2023-02-14T11:07:19.775Z,11.35
2023-02-14T11:09:47.155Z,12.55
2023-02-14T11:12:41.491Z,11.55
2023-02-14T11:15:33.369Z,10.77
2023-02-14T11:18:23.491Z,11.80
2023-02-14T11:21:26.508Z,11.45
2023-02-14T11:23:53.568Z,12.20
2023-02-14T11:26:35.382Z,11.38
2023-02-14T11:29:12.220Z,12.30
2023-02-14T11:31:41.212Z,11.43
2023-02-14T11:34:52.925Z,10.90
2023-02-14T11:37:23.105Z,10.88
2023-02-14T11:39:51.376Z,11.63
2023-02-14T11:42:42.718Z,11.02
2023-02-14T11:45:36.382Z,11.57
2023-02-14T11:48:22.040Z,10.75
2023-02-14T11:51:04.497Z,10.73
2023-02-14T11:53:43.638Z,10.70
2023-02-14T11:56:11.071Z,11.10
2023-02-14T11:58:49.197Z,10.95
2023-02-14T12:01:30.191Z,11.07
2023-02-14T12:04:04.865Z,10.75
2023-02-14T12:06:34.880Z,11.02
2023-02-14T12:09:12.945Z,11.68
2023-02-14T12:11:40.153Z,10.68
2023-02-14T12:14:21.823Z,10.02
2023-02-14T12:17:13.713Z,10.23
2023-02-14T12:19:50.860Z,12.07
2023-02-14T12:22:27.465Z,10.65
2023-02-14T12:24:58.413Z,11.65
2023-02-14T12:27:30.180Z,11.48
2023-02-14T12:30:18.965Z,11.00
2023-02-14T12:32:51.868Z,10.10
2023-02-14T12:35:38.517Z,10.68
2023-02-14T12:38:11.464Z,9.98
2023-02-14T12:41:06.221Z,10.20
2023-02-14T12:43:39.389Z,10.70
2023-02-14T12:46:44.735Z,9.50
2023-02-14T12:49:30.243Z,9.75
2023-02-14T12:52:02.180Z,10.25
2023-02-14T12:54:53.029Z,10.00
2023-02-14T12:57:26.807Z,9.77
2023-02-14T13:00:15.218Z,10.18
2023-02-14T13:03:17.212Z,9.77
2023-02-14T13:06:10.737Z,9.98
2023-02-14T13:09:01.527Z,9.13
2023-02-14T13:11:44.785Z,9.75
2023-02-14T13:14:21.794Z,10.63
2023-02-14T13:17:06.478Z,9.98
2023-02-14T13:19:51.615Z,10.07
2023-02-14T13:22:22.931Z,10.10
2023-02-14T13:24:59.205Z,9.02
2023-02-14T13:27:33.301Z,9.68
2023-02-14T13:30:04.978Z,10.77
2023-02-14T13:32:40.479Z,10.30
2023-02-14T13:35:08.801Z,9.70
2023-02-14T13:37:36.959Z,9.88
2023-02-14T13:40:16.288Z,9.88
2023-02-14T13:42:49.942Z,10.52
2023-02-14T13:45:31.998Z,10.10
2023-02-14T13:48:18.177Z,10.40
2023-02-14T13:50:51.480Z,9.85
2023-02-14T13:53:38.714Z,10.00
2023-02-14T13:56:32.707Z,9.77
2023-02-14T13:59:05.586Z,10.10
2023-02-14T14:01:42.998Z,10.27
2023-02-14T14:04:28.520Z,9.90
2023-02-14T14:07:04.531Z,9.90
2023-02-14T14:09:51.790Z,9.82
2023-02-14T14:12:28.456Z,9.10
2023-02-14T14:15:08.323Z,9.45
2023-02-14T14:17:38.376Z,10.68
2023-02-14T14:20:28.613Z,9.93
2023-02-14T14:22:58.019Z,10.15
2023-02-14T14:25:38.991Z,9.00
2023-02-14T14:28:18.820Z,8.95
2023-02-14T14:30:46.251Z,9.95
2023-02-14T14:33:17.545Z,9.65
2023-02-14T14:36:01.915Z,9.75
2023-02-14T14:38:30.651Z,9.68
2023-02-14T14:40:58.020Z,9.90
2023-02-14T14:43:35.364Z,10.35
2023-02-14T14:46:04.371Z,9.63
2023-02-14T14:48:51.942Z,10.20
2023-02-14T14:51:35.357Z,10.05
2023-02-14T14:54:18.424Z,10.30
2023-02-14T14:56:59.508Z,10.25
2023-02-14T14:59:31.617Z,9.90
2023-02-14T15:01:59.038Z,10.10
2023-02-14T15:04:31.564Z,10.00
2023-02-14T15:07:21.298Z,9.90
2023-02-14T15:09:48.390Z,10.00
2023-02-14T15:12:41.269Z,10.60
2023-02-14T15:15:12.023Z,9.50
2023-02-14T15:17:40.898Z,9.77
2023-02-14T15:20:20.394Z,9.98
2023-02-14T15:22:49.759Z,10.10
2023-02-14T15:25:22.102Z,9.32
2023-02-14T15:27:49.479Z,10.25
2023-02-14T15:30:19.860Z,9.23
2023-02-14T15:32:49.625Z,9.25
2023-02-14T15:35:19.733Z,8.98
2023-02-14T15:37:47.510Z,10.10
2023-02-14T15:40:25.097Z,9.05
2023-02-14T15:42:59.199Z,9.82
2023-02-14T15:45:27.715Z,9.10
2023-02-14T15:48:05.207Z,9.75
2023-02-14T15:50:35.636Z,9.55
2023-02-14T15:53:08.434Z,9.80
2023-02-14T15:55:37.198Z,9.88
2023-02-14T15:58:09.318Z,9.65
2023-02-14T16:00:36.630Z,9.88
2023-02-14T16:03:08.770Z,9.20
2023-02-14T16:05:35.825Z,8.70
2023-02-14T16:08:05.746Z,9.38
2023-02-14T16:10:39.254Z,9.13
2023-02-14T16:13:15.369Z,9.80
2023-02-14T16:16:08.278Z,9.18
2023-02-14T16:18:43.862Z,9.30
2023-02-14T16:21:15.827Z,9.05
2023-02-14T16:23:44.902Z,9.65
2023-02-14T16:26:12.700Z,9.32
2023-02-14T16:28:41.084Z,9.65
2023-02-14T16:31:16.234Z,10.15
2023-02-14T16:33:43.480Z,9.27
2023-02-14T16:36:23.695Z,9.40
2023-02-14T16:38:51.728Z,9.25
2023-02-14T16:41:24.870Z,9.73
2023-02-14T16:43:52.303Z,9.52
2023-02-14T16:46:25.819Z,10.02
2023-02-14T16:48:53.152Z,9.93
2023-02-14T16:51:28.812Z,9.57
2023-02-14T16:53:58.563Z,10.05
2023-02-14T16:56:34.337Z,9.48
2023-02-14T16:59:01.612Z,10.27
2023-02-14T17:01:28.819Z,10.85
2023-02-14T17:03:56.037Z,10.05
2023-02-14T17:06:33.107Z,10.55
2023-02-14T17:09:05.630Z,10.25
2023-02-14T17:11:35.380Z,11.07
2023-02-14T17:14:02.578Z,10.82
2023-02-14T17:16:31.051Z,10.70
2023-02-14T17:18:58.707Z,10.68
2023-02-14T17:21:25.806Z,11.52
2023-02-14T17:23:53.573Z,11.30
2023-02-14T17:26:20.631Z,11.23
2023-02-14T17:28:47.812Z,10.88
2023-02-14T17:31:14.973Z,11.23
2023-02-14T17:33:42.180Z,11.05
2023-02-14T17:36:12.196Z,11.52
2023-02-14T17:38:40.383Z,11.60
2023-02-14T17:41:22.984Z,11.30
2023-02-14T17:43:55.067Z,10.82
2023-02-14T17:46:22.413Z,10.88
2023-02-14T17:48:49.866Z,11.88
2023-02-14T17:51:20.517Z,10.93
2023-02-14T17:53:48.314Z,12.10
2023-02-14T17:56:18.117Z,11.27
2023-02-14T17:58:47.933Z,11.45
2023-02-14T18:01:24.180Z,11.10
2023-02-14T18:03:54.683Z,11.63
2023-02-14T18:06:22.459Z,12.68
2023-02-14T18:08:51.995Z,12.77
2023-02-14T18:11:20.911Z,11.60
2023-02-14T18:13:48.650Z,12.38
2023-02-14T18:16:18.549Z,11.43
2023-02-14T18:18:46.359Z,11.77
2023-02-14T18:21:20.833Z,12.27
2023-02-14T18:23:48.413Z,12.07
2023-02-14T18:26:18.236Z,12.15
2023-02-14T18:28:45.687Z,12.75
2023-02-14T18:31:18.593Z,12.50
2023-02-14T18:33:46.885Z,12.13
2023-02-14T18:36:17.137Z,12.23
2023-02-14T18:38:46.304Z,13.07
2023-02-14T18:41:16.181Z,12.05
2023-02-14T18:43:45.402Z,12.50
2023-02-14T18:46:15.186Z,12.50
2023-02-14T18:48:42.546Z,12.30
2023-02-14T18:51:11.347Z,12.98
2023-02-14T18:53:39.734Z,12.93
2023-02-14T18:56:10.394Z,12.10
2023-02-14T18:58:38.116Z,12.30
2023-02-14T19:01:16.850Z,13.70
2023-02-14T19:03:44.564Z,12.98
2023-02-14T19:06:12.461Z,13.93
2023-02-14T19:08:40.854Z,12.30
2023-02-14T19:11:16.683Z,13.48
2023-02-14T19:13:52.504Z,13.70
2023-02-14T19:16:26.399Z,13.68
2023-02-14T19:18:54.278Z,13.45
2023-02-14T19:21:26.990Z,13.38
2023-02-14T19:24:01.303Z,13.30
2023-02-14T19:26:37.338Z,13.30
2023-02-14T19:29:08.153Z,13.40
2023-02-14T19:31:37.965Z,13.88
2023-02-14T19:34:07.388Z,14.65
2023-02-14T19:36:39.133Z,14.63
2023-02-14T19:39:07.954Z,14.52
2023-02-14T19:41:35.626Z,13.82
2023-02-14T19:44:05.132Z,14.82
2023-02-14T19:46:37.148Z,15.55
2023-02-14T19:49:07.232Z,15.27
2023-02-14T19:51:38.974Z,14.52
2023-02-14T19:54:09.876Z,14.05
2023-02-14T19:56:43.377Z,13.93
2023-02-14T19:59:11.794Z,15.38
2023-02-14T20:01:44.510Z,15.38
2023-02-14T20:04:15.658Z,14.40
2023-02-14T20:06:49.377Z,14.20
2023-02-14T20:09:18.472Z,15.13
2023-02-14T20:11:51.405Z,15.25
2023-02-14T20:14:47.155Z,14.45
2023-02-14T20:17:19.910Z,13.93
2023-02-14T20:19:50.571Z,14.95
2023-02-14T20:22:20.812Z,13.95
2023-02-14T20:24:49.004Z,14.98
2023-02-14T20:27:18.879Z,14.38
2023-02-14T20:29:55.155Z,15.95
2023-02-14T20:32:26.017Z,14.77
2023-02-14T20:34:54.712Z,15.73
2023-02-14T20:37:22.149Z,16.73
2023-02-14T20:39:49.263Z,15.25
2023-02-14T20:42:19.777Z,15.57
2023-02-14T20:44:46.965Z,15.38
2023-02-14T20:47:14.368Z,15.27
2023-02-14T20:49:44.838Z,16.73
2023-02-14T20:52:12.447Z,15.13
2023-02-14T20:54:40.142Z,15.85
2023-02-14T20:57:09.681Z,15.65
2023-02-14T20:59:47.311Z,15.15
2023-02-14T21:02:16.103Z,15.45
2023-02-14T21:04:44.026Z,16.45
2023-02-14T21:07:11.980Z,15.32
2023-02-14T21:09:39.200Z,16.13
2023-02-14T21:12:07.815Z,16.98
2023-02-14T21:14:35.013Z,15.13
2023-02-14T21:17:04.476Z,16.38
2023-02-14T21:19:32.070Z,16.80
2023-02-14T21:21:59.163Z,15.70
2023-02-14T21:24:26.303Z,15.93
2023-02-14T21:26:53.417Z,16.95
2023-02-14T21:29:23.048Z,16.63
2023-02-14T21:31:50.353Z,17.05
2023-02-14T21:34:17.501Z,17.63
2023-02-14T21:36:45.571Z,16.70
2023-02-14T21:39:12.679Z,17.48
2023-02-14T21:41:39.808Z,16.48
2023-02-14T21:44:07.117Z,16.73
2023-02-14T21:46:38.508Z,17.85
2023-02-14T21:49:27.201Z,16.75
2023-02-14T21:51:54.304Z,17.02
2023-02-14T21:54:21.396Z,16.95
2023-02-14T21:56:49.962Z,16.15
2023-02-14T21:59:17.297Z,17.00
2023-02-14T22:01:44.531Z,15.95
2023-02-14T22:04:13.217Z,17.75
2023-02-14T22:06:41.924Z,18.58
2023-02-14T22:09:09.875Z,17.38
2023-02-14T22:11:37.216Z,17.75
2023-02-14T22:14:04.567Z,17.63
2023-02-14T22:16:31.750Z,17.38
2023-02-14T22:18:58.845Z,20.00
2023-02-14T22:21:27.178Z,17.83
2023-02-14T22:23:55.832Z,18.77
2023-02-14T22:26:28.605Z,18.27
2023-02-14T22:28:59.359Z,17.92
2023-02-14T22:31:28.635Z,18.95
2023-02-14T22:33:55.888Z,18.42
2023-02-14T22:36:22.881Z,17.95
2023-02-14T22:38:50.209Z,19.40
2023-02-14T22:41:19.758Z,19.00
2023-02-14T22:43:46.894Z,18.45
2023-02-14T22:46:17.342Z,18.30
2023-02-14T22:48:44.699Z,17.63
2023-02-14T22:51:19.801Z,18.92
2023-02-14T22:53:47.046Z,19.10
2023-02-14T22:56:15.673Z,18.63
2023-02-14T22:58:43.522Z,17.17
2023-02-14T23:01:15.944Z,18.38
2023-02-14T23:03:43.954Z,17.90
2023-02-14T23:06:12.065Z,19.95
2023-02-14T23:08:44.313Z,18.90
2023-02-14T23:11:20.229Z,18.15
2023-02-14T23:14:06.610Z,18.85
2023-02-14T23:16:53.070Z,17.33
2023-02-14T23:19:44.230Z,18.52
2023-02-14T23:22:17.153Z,18.98
2023-02-14T23:24:45.914Z,19.40
2023-02-14T23:27:12.984Z,18.98
2023-02-14T23:29:40.210Z,17.98
2023-02-14T23:32:08.266Z,17.77
2023-02-14T23:34:38.208Z,18.75
2023-02-14T23:37:05.775Z,18.27
2023-02-14T23:39:35.823Z,18.45
2023-02-14T23:42:07.249Z,18.42
2023-02-14T23:44:35.272Z,18.52
2023-02-14T23:47:04.635Z,19.60
2023-02-14T23:49:33.564Z,18.88
2023-02-14T23:52:01.259Z,18.73
2023-02-14T23:54:28.624Z,18.65
2023-02-14T23:56:57.695Z,18.52
2023-02-14T23:59:24.988Z,18.00
